createdAt,value
2017-11-18T00:00:49.634Z,8.60
2017-11-18T00:03:15.793Z,8.50
2017-11-18T00:05:42.004Z,8.50
2017-11-18T00:08:08.276Z,8.50
2017-11-18T00:10:34.440Z,8.50
2017-11-18T00:13:00.615Z,8.50
2017-11-18T00:15:26.807Z,8.40
2017-11-18T00:17:52.980Z,8.40
2017-11-18T00:20:19.137Z,8.40
2017-11-18T00:22:45.354Z,8.40
2017-11-18T00:25:11.532Z,8.40
2017-11-18T00:27:38.493Z,8.40
2017-11-18T00:30:04.689Z,8.40
2017-11-18T00:32:30.858Z,8.40
2017-11-18T00:34:57.019Z,8.40
2017-11-18T00:37:23.932Z,8.40
2017-11-18T00:39:50.107Z,8.40
2017-11-18T00:42:16.299Z,8.40
2017-11-18T00:44:42.513Z,8.40
2017-11-18T00:47:08.695Z,8.50
2017-11-18T00:49:35.596Z,8.40
2017-11-18T00:52:01.866Z,8.40
2017-11-18T00:54:28.780Z,8.40
2017-11-18T00:56:54.971Z,8.40
2017-11-18T00:59:21.177Z,8.40
2017-11-18T01:01:47.345Z,8.50
2017-11-18T01:04:13.522Z,8.50
2017-11-18T01:06:39.717Z,8.50
2017-11-18T01:09:05.890Z,8.50
2017-11-18T01:11:32.093Z,8.50
2017-11-18T01:13:58.258Z,8.50
2017-11-18T01:16:24.431Z,8.50
2017-11-18T01:18:50.659Z,8.50
2017-11-18T01:21:17.587Z,8.50
2017-11-18T01:23:43.778Z,8.40
2017-11-18T01:26:09.989Z,8.40
2017-11-18T01:28:36.186Z,8.40
2017-11-18T01:31:02.402Z,8.40
2017-11-18T01:33:28.594Z,8.40
2017-11-18T01:35:54.811Z,8.40
2017-11-18T01:38:21.758Z,8.40
2017-11-18T01:40:48.701Z,8.30
2017-11-18T01:43:14.902Z,8.30
2017-11-18T01:45:41.107Z,8.30
2017-11-18T01:48:07.282Z,8.30
2017-11-18T01:50:33.483Z,8.30
2017-11-18T01:52:59.725Z,8.20
2017-11-18T01:55:25.925Z,8.00
2017-11-18T01:57:52.873Z,8.20
2017-11-18T02:00:19.810Z,8.20
2017-11-18T02:02:46.738Z,8.10
2017-11-18T02:05:12.943Z,8.10
2017-11-18T02:07:39.125Z,8.00
2017-11-18T02:10:06.077Z,8.20
2017-11-18T02:12:33.030Z,8.20
2017-11-18T02:14:59.950Z,8.20
2017-11-18T02:17:26.139Z,8.20
2017-11-18T02:19:52.338Z,8.20
2017-11-18T02:22:18.502Z,8.10
2017-11-18T02:24:44.681Z,8.10
2017-11-18T02:27:10.903Z,8.10
2017-11-18T02:29:37.114Z,8.20
2017-11-18T02:32:03.296Z,8.20
2017-11-18T02:34:29.496Z,8.20
2017-11-18T02:36:55.657Z,8.00
2017-11-18T02:39:21.827Z,8.20
2017-11-18T02:41:48.022Z,8.20
2017-11-18T02:44:14.206Z,8.20
2017-11-18T02:46:41.134Z,8.20
2017-11-18T02:49:08.096Z,8.10
2017-11-18T02:51:35.029Z,8.20
2017-11-18T02:54:02.020Z,8.10
2017-11-18T02:56:28.186Z,8.10
2017-11-18T02:58:54.362Z,8.10
2017-11-18T03:01:21.258Z,8.10
2017-11-18T03:03:47.446Z,8.10
2017-11-18T03:06:14.363Z,8.10
2017-11-18T03:08:40.538Z,8.10
2017-11-18T03:11:07.454Z,8.00
2017-11-18T03:13:34.371Z,8.00
2017-11-18T03:16:00.535Z,8.00
2017-11-18T03:18:28.208Z,8.00
2017-11-18T03:20:54.363Z,7.90
2017-11-18T03:23:20.505Z,7.90
2017-11-18T03:25:47.422Z,7.90
2017-11-18T03:28:13.594Z,7.90
2017-11-18T03:30:39.798Z,7.90
2017-11-18T03:33:06.764Z,7.90
2017-11-18T03:35:33.675Z,7.90
2017-11-18T03:37:59.858Z,7.90
2017-11-18T03:40:26.042Z,7.90
2017-11-18T03:42:52.223Z,7.90
2017-11-18T03:45:18.373Z,8.00
2017-11-18T03:47:44.557Z,8.00
2017-11-18T03:50:10.723Z,8.00
2017-11-18T03:52:37.758Z,8.00
2017-11-18T03:55:05.819Z,8.00
2017-11-18T03:57:31.942Z,8.00
2017-11-18T03:59:58.111Z,8.00
2017-11-18T04:02:25.051Z,8.00
2017-11-18T04:04:51.974Z,8.00
2017-11-18T04:07:18.138Z,8.00
2017-11-18T04:09:45.067Z,8.00
2017-11-18T04:12:11.215Z,7.90
2017-11-18T04:14:37.358Z,7.90
2017-11-18T04:17:04.302Z,7.90
2017-11-18T04:19:31.233Z,7.90
2017-11-18T04:21:57.387Z,7.90
2017-11-18T04:24:24.319Z,7.90
2017-11-18T04:26:50.478Z,7.90
2017-11-18T04:29:17.372Z,7.90
2017-11-18T04:31:43.587Z,7.90
2017-11-18T04:34:09.747Z,7.90
2017-11-18T04:36:35.934Z,7.90
2017-11-18T04:39:02.858Z,7.90
2017-11-18T04:41:29.026Z,7.90
2017-11-18T04:43:55.928Z,7.80
2017-11-18T04:46:22.126Z,7.80
2017-11-18T04:48:48.288Z,7.80
2017-11-18T04:51:14.453Z,7.90
2017-11-18T04:53:41.370Z,7.90
2017-11-18T04:56:08.572Z,7.90
2017-11-18T04:58:35.463Z,7.90
2017-11-18T05:01:01.671Z,7.90
2017-11-18T05:03:27.838Z,8.00
2017-11-18T05:05:53.994Z,8.00
2017-11-18T05:08:20.310Z,8.00
2017-11-18T05:10:46.494Z,8.00
2017-11-18T05:13:13.378Z,8.00
2017-11-18T05:15:39.555Z,8.00
2017-11-18T05:18:05.718Z,8.10
2017-11-18T05:20:31.875Z,8.20
2017-11-18T05:22:58.044Z,8.10
2017-11-18T05:25:24.198Z,8.00
2017-11-18T05:27:51.115Z,8.00
2017-11-18T05:30:17.273Z,8.00
2017-11-18T05:32:44.190Z,8.00
2017-11-18T05:35:10.345Z,8.00
2017-11-18T05:37:38.117Z,8.00
2017-11-18T05:40:04.302Z,8.00
2017-11-18T05:42:30.469Z,8.00
2017-11-18T05:44:56.670Z,8.00
2017-11-18T05:47:22.826Z,7.90
2017-11-18T05:49:48.982Z,7.90
2017-11-18T05:52:15.146Z,7.90
2017-11-18T05:54:41.310Z,7.90
2017-11-18T05:57:07.545Z,7.80
2017-11-18T05:59:33.747Z,7.80
2017-11-18T06:01:59.902Z,7.80
2017-11-18T06:04:26.067Z,7.80
2017-11-18T06:06:52.238Z,7.80
2017-11-18T06:09:19.148Z,7.80
2017-11-18T06:11:45.310Z,7.80
2017-11-18T06:14:12.230Z,7.80
2017-11-18T06:16:38.406Z,7.80
2017-11-18T06:19:05.314Z,7.80
2017-11-18T06:21:31.470Z,7.70
2017-11-18T06:23:58.374Z,7.70
2017-11-18T06:26:24.547Z,7.70
2017-11-18T06:28:50.719Z,7.60
2017-11-18T06:31:16.895Z,7.60
2017-11-18T06:33:43.045Z,7.60
2017-11-18T06:36:09.241Z,7.50
2017-11-18T06:38:35.397Z,7.50
2017-11-18T06:41:01.560Z,7.50
2017-11-18T06:43:28.469Z,7.50
2017-11-18T06:45:54.628Z,7.50
2017-11-18T06:48:20.823Z,7.50
2017-11-18T06:50:46.992Z,7.50
2017-11-18T06:53:13.167Z,7.50
2017-11-18T06:55:39.350Z,7.50
2017-11-18T06:58:05.610Z,7.50
2017-11-18T07:00:32.526Z,7.40
2017-11-18T07:02:58.691Z,7.40
2017-11-18T07:05:25.815Z,7.40
2017-11-18T07:07:53.568Z,7.40
2017-11-18T07:10:19.735Z,7.40
2017-11-18T07:12:46.654Z,7.40
2017-11-18T07:15:12.830Z,7.40
2017-11-18T07:17:39.064Z,7.40
2017-11-18T07:20:05.991Z,7.40
2017-11-18T07:22:32.159Z,7.40
2017-11-18T07:24:58.376Z,7.50
2017-11-18T07:27:24.583Z,7.50
2017-11-18T07:29:50.794Z,7.50
2017-11-18T07:32:16.978Z,7.50
2017-11-18T07:34:43.162Z,7.50
2017-11-18T07:37:09.318Z,7.50
2017-11-18T07:39:35.502Z,7.60
2017-11-18T07:42:01.708Z,7.60
2017-11-18T07:44:27.883Z,7.60
2017-11-18T07:46:54.854Z,7.70
2017-11-18T07:49:21.103Z,7.70
2017-11-18T07:51:47.290Z,7.70
2017-11-18T07:54:14.218Z,7.70
2017-11-18T07:56:41.170Z,7.80
2017-11-18T07:59:08.143Z,7.90
2017-11-18T08:01:34.309Z,7.90
2017-11-18T08:04:00.505Z,8.10
2017-11-18T08:06:27.424Z,8.40
2017-11-18T08:08:53.596Z,8.30
2017-11-18T08:11:19.802Z,8.50
2017-11-18T08:13:46.004Z,8.60
2017-11-18T08:16:12.190Z,8.80
2017-11-18T08:18:38.385Z,8.70
2017-11-18T08:21:04.549Z,8.80
2017-11-18T08:23:31.460Z,8.70
2017-11-18T08:25:57.659Z,8.70
2017-11-18T08:28:23.850Z,8.60
2017-11-18T08:30:50.785Z,8.40
2017-11-18T08:33:17.002Z,8.40
2017-11-18T08:35:43.206Z,8.40
2017-11-18T08:38:09.406Z,8.30
2017-11-18T08:40:36.352Z,8.20
2017-11-18T08:43:02.516Z,8.10
2017-11-18T08:45:28.677Z,8.20
2017-11-18T08:47:54.865Z,8.20
2017-11-18T08:50:21.777Z,8.20
2017-11-18T08:52:47.927Z,8.10
2017-11-18T08:55:14.140Z,8.20
2017-11-18T08:57:41.078Z,8.20
2017-11-18T09:00:07.350Z,8.20
2017-11-18T09:02:33.527Z,8.20
2017-11-18T09:04:59.681Z,8.20
2017-11-18T09:07:25.862Z,8.20
2017-11-18T09:09:52.043Z,8.10
2017-11-18T09:12:18.201Z,8.20
2017-11-18T09:14:44.394Z,8.20
2017-11-18T09:17:10.562Z,8.30
2017-11-18T09:19:36.714Z,8.20
2017-11-18T09:22:03.636Z,8.30
2017-11-18T09:24:29.838Z,8.30
2017-11-18T09:26:56.006Z,8.30
2017-11-18T09:29:22.163Z,8.30
2017-11-18T09:31:48.346Z,8.30
2017-11-18T09:34:14.515Z,8.30
2017-11-18T09:36:40.682Z,8.50
2017-11-18T09:39:07.616Z,8.30
2017-11-18T09:41:33.770Z,8.30
2017-11-18T09:44:00.686Z,8.30
2017-11-18T09:46:26.863Z,8.30
2017-11-18T09:48:53.753Z,8.30
2017-11-18T09:51:19.944Z,8.30
2017-11-18T09:53:46.134Z,8.20
2017-11-18T09:56:12.325Z,8.10
2017-11-18T09:58:38.496Z,8.10
2017-11-18T10:01:04.782Z,8.10
2017-11-18T10:03:30.957Z,8.10
2017-11-18T10:05:57.115Z,8.10
2017-11-18T10:08:24.047Z,8.10
2017-11-18T10:10:50.257Z,8.10
2017-11-18T10:13:16.414Z,8.10
2017-11-18T10:15:42.598Z,8.10
2017-11-18T10:18:09.491Z,8.20
2017-11-18T10:20:35.673Z,8.20
2017-11-18T10:23:01.876Z,8.30
2017-11-18T10:25:28.120Z,8.30
2017-11-18T10:27:54.300Z,8.30
2017-11-18T10:30:20.498Z,8.40
2017-11-18T10:32:47.422Z,8.40
2017-11-18T10:35:13.581Z,8.40
2017-11-18T10:37:39.762Z,8.40
2017-11-18T10:40:05.918Z,8.40
2017-11-18T10:42:32.116Z,8.40
2017-11-18T10:44:59.036Z,8.40
2017-11-18T10:47:25.934Z,8.40
2017-11-18T10:49:52.153Z,8.40
2017-11-18T10:52:18.354Z,8.30
2017-11-18T10:54:44.502Z,8.30
2017-11-18T10:57:10.682Z,8.30
2017-11-18T10:59:36.863Z,8.20
2017-11-18T11:02:03.929Z,8.20
2017-11-18T11:04:30.117Z,8.20
2017-11-18T11:06:56.298Z,8.20
2017-11-18T11:09:22.510Z,8.20
2017-11-18T11:11:49.422Z,8.20
2017-11-18T11:14:15.601Z,8.20
2017-11-18T11:16:42.543Z,8.20
2017-11-18T11:19:08.758Z,8.20
2017-11-18T11:21:34.988Z,8.30
2017-11-18T11:24:01.147Z,8.50
2017-11-18T11:26:27.446Z,8.60
2017-11-18T11:28:53.653Z,8.70
2017-11-18T11:31:19.887Z,8.70
2017-11-18T11:33:46.041Z,9.00
2017-11-18T11:36:12.258Z,9.10
2017-11-18T11:38:38.438Z,9.20
2017-11-18T11:41:04.598Z,9.30
2017-11-18T11:43:30.785Z,9.30
2017-11-18T11:45:56.942Z,9.30
2017-11-18T11:48:23.854Z,8.90
2017-11-18T11:50:50.054Z,8.90
2017-11-18T11:53:16.246Z,8.70
2017-11-18T11:55:43.478Z,8.50
2017-11-18T11:58:09.693Z,8.40
2017-11-18T12:00:36.603Z,8.10
2017-11-18T12:03:03.631Z,8.00
2017-11-18T12:05:29.798Z,8.00
2017-11-18T12:07:56.718Z,8.00
2017-11-18T12:10:22.901Z,8.00
2017-11-18T12:12:49.092Z,8.00
2017-11-18T12:15:15.239Z,7.90
2017-11-18T12:17:41.641Z,7.90
2017-11-18T12:20:07.828Z,7.90
2017-11-18T12:22:34.067Z,8.00
2017-11-18T12:25:00.258Z,8.00
2017-11-18T12:27:26.541Z,8.00
2017-11-18T12:29:52.745Z,8.10
2017-11-18T12:32:19.673Z,8.10
2017-11-18T12:34:45.850Z,8.10
2017-11-18T12:37:12.731Z,8.20
2017-11-18T12:39:39.005Z,8.20
2017-11-18T12:42:05.192Z,8.30
2017-11-18T12:44:31.409Z,8.30
2017-11-18T12:46:57.560Z,8.30
2017-11-18T12:49:24.638Z,8.30
2017-11-18T12:51:50.834Z,8.20
2017-11-18T12:54:17.130Z,8.10
2017-11-18T12:56:44.070Z,7.90
2017-11-18T12:59:10.238Z,7.90
2017-11-18T13:01:37.188Z,7.90
2017-11-18T13:04:03.505Z,7.90
2017-11-18T13:06:30.415Z,7.70
2017-11-18T13:08:56.637Z,7.70
2017-11-18T13:11:26.174Z,7.80
2017-11-18T13:13:54.158Z,7.80
2017-11-18T13:16:22.413Z,7.80
2017-11-18T13:18:53.282Z,7.70
2017-11-18T13:21:19.467Z,7.60
2017-11-18T13:23:45.649Z,7.60
2017-11-18T13:26:21.508Z,7.50
2017-11-18T13:28:48.536Z,7.50
2017-11-18T13:31:23.483Z,7.40
2017-11-18T13:33:51.591Z,7.40
2017-11-18T13:36:18.796Z,7.40
2017-11-18T13:38:48.863Z,7.40
2017-11-18T13:41:17.403Z,7.20
2017-11-18T13:43:51.653Z,7.10
2017-11-18T13:46:17.857Z,7.30
2017-11-18T13:48:50.646Z,7.30
2017-11-18T13:51:19.938Z,7.30
2017-11-18T13:56:41.560Z,7.10
2017-11-18T14:01:46.067Z,7.00
2017-11-18T14:04:16.990Z,7.40
2017-11-18T14:06:43.979Z,7.40
2017-11-18T14:09:10.294Z,7.40
2017-11-18T14:11:37.343Z,7.40
2017-11-18T14:14:03.701Z,7.40
2017-11-18T14:16:31.463Z,7.40
2017-11-18T14:18:57.883Z,7.50
2017-11-18T14:21:24.271Z,7.50
2017-11-18T14:23:50.809Z,7.50
2017-11-18T14:26:17.231Z,7.50
2017-11-18T14:28:44.394Z,7.40
2017-11-18T14:31:10.765Z,7.40
2017-11-18T14:33:38.811Z,7.50
2017-11-18T14:36:05.191Z,7.50
2017-11-18T14:38:32.434Z,7.50
2017-11-18T14:40:58.793Z,7.50
2017-11-18T14:43:25.130Z,7.50
2017-11-18T14:45:51.516Z,7.60
2017-11-18T14:48:19.458Z,7.60
2017-11-18T14:50:45.783Z,7.60
2017-11-18T14:53:12.979Z,7.60
2017-11-18T14:55:40.399Z,7.60
2017-11-18T14:58:09.181Z,7.60
2017-11-18T15:00:35.700Z,7.60
2017-11-18T15:03:02.847Z,7.50
2017-11-18T15:05:29.374Z,7.50
2017-11-18T15:07:55.881Z,7.40
2017-11-18T15:10:22.257Z,7.40
2017-11-18T15:12:49.693Z,7.30
2017-11-18T15:15:25.747Z,7.20
2017-11-18T15:17:53.925Z,7.20
2017-11-18T15:20:28.143Z,7.10
2017-11-18T15:23:13.229Z,7.20
2017-11-18T15:25:45.419Z,7.10
2017-11-18T15:28:17.771Z,7.10
2017-11-18T15:30:50.046Z,7.10
2017-11-18T15:33:24.915Z,7.10
2017-11-18T15:35:51.522Z,7.10
2017-11-18T15:38:23.958Z,7.10
2017-11-18T15:40:50.224Z,7.10
2017-11-18T15:43:17.855Z,7.10
2017-11-18T15:45:44.948Z,7.10
2017-11-18T15:48:18.924Z,7.30
2017-11-18T15:54:02.757Z,7.20
2017-11-18T15:56:34.870Z,7.10
2017-11-18T15:59:03.072Z,7.10
2017-11-18T16:01:35.384Z,7.10
2017-11-18T16:04:08.597Z,7.10
2017-11-18T16:06:36.805Z,7.00
2017-11-18T16:09:03.015Z,7.00
2017-11-18T16:11:29.209Z,7.00
2017-11-18T16:13:55.425Z,7.00
2017-11-18T16:16:21.625Z,7.00
2017-11-18T16:18:47.861Z,6.90
2017-11-18T16:21:14.052Z,6.90
2017-11-18T16:23:41.306Z,6.90
2017-11-18T16:26:07.530Z,7.00
2017-11-18T16:28:33.757Z,7.10
2017-11-18T16:30:59.946Z,7.10
2017-11-18T16:33:26.916Z,7.10
2017-11-18T16:35:53.246Z,7.10
2017-11-18T16:38:19.481Z,7.10
2017-11-18T16:40:45.974Z,7.10
2017-11-18T16:43:15.511Z,7.10
2017-11-18T16:45:46.578Z,7.10
2017-11-18T16:51:23.564Z,7.10
2017-11-18T16:53:49.878Z,7.10
2017-11-18T16:56:16.836Z,7.00
2017-11-18T16:58:43.023Z,7.00
2017-11-18T17:01:09.178Z,7.00
2017-11-18T17:03:37.226Z,6.90
2017-11-18T17:06:03.546Z,6.90
2017-11-18T17:08:34.812Z,6.90
2017-11-18T17:11:01.799Z,6.90
2017-11-18T17:13:28.759Z,6.90
2017-11-18T17:15:54.905Z,7.00
2017-11-18T17:18:21.867Z,7.00
2017-11-18T17:20:48.127Z,7.00
2017-11-18T17:23:14.328Z,7.00
2017-11-18T17:25:42.298Z,7.00
2017-11-18T17:28:09.234Z,7.00
2017-11-18T17:30:36.187Z,7.00
2017-11-18T17:33:02.384Z,7.00
2017-11-18T17:35:28.764Z,7.00
2017-11-18T17:37:59.448Z,7.00
2017-11-18T17:40:31.919Z,7.10
2017-11-18T17:42:58.122Z,7.00
2017-11-18T17:45:25.022Z,7.00
2017-11-18T17:47:51.367Z,7.00
2017-11-18T17:50:17.596Z,7.00
2017-11-18T17:52:43.759Z,7.00
2017-11-18T17:55:10.158Z,7.00
2017-11-18T17:57:36.397Z,7.00
2017-11-18T18:00:02.575Z,7.00
2017-11-18T18:02:29.593Z,7.00
2017-11-18T18:04:55.826Z,7.00
2017-11-18T18:07:22.072Z,7.00
2017-11-18T18:09:49.184Z,7.00
2017-11-18T18:12:15.393Z,7.10
2017-11-18T18:14:41.580Z,7.00
2017-11-18T18:17:08.642Z,7.10
2017-11-18T18:19:34.845Z,7.10
2017-11-18T18:22:01.034Z,7.10
2017-11-18T18:24:27.968Z,7.10
2017-11-18T18:26:54.241Z,7.00
2017-11-18T18:29:20.490Z,7.10
2017-11-18T18:31:46.908Z,7.10
2017-11-18T18:34:13.156Z,7.00
2017-11-18T18:36:39.365Z,7.10
2017-11-18T18:39:06.331Z,7.00
2017-11-18T18:41:32.570Z,7.00
2017-11-18T18:43:58.915Z,7.10
2017-11-18T18:46:25.162Z,7.10
2017-11-18T18:48:51.329Z,7.00
2017-11-18T18:51:17.500Z,7.00
2017-11-18T18:53:44.435Z,7.00
2017-11-18T18:56:10.635Z,7.00
2017-11-18T18:58:36.811Z,7.00
2017-11-18T19:01:03.900Z,7.00
2017-11-18T19:03:30.158Z,7.00
2017-11-18T19:05:56.315Z,7.00
2017-11-18T19:08:22.539Z,7.10
2017-11-18T19:10:48.851Z,7.00
2017-11-18T19:13:15.023Z,7.00
2017-11-18T19:15:43.691Z,7.00
2017-11-18T19:18:09.967Z,7.00
2017-11-18T19:20:36.885Z,7.00
2017-11-18T19:23:03.089Z,7.00
2017-11-18T19:25:29.338Z,7.10
2017-11-18T19:27:55.556Z,7.10
2017-11-18T19:30:22.662Z,7.10
2017-11-18T19:32:48.841Z,7.20
2017-11-18T19:35:15.049Z,7.10
2017-11-18T19:37:42.009Z,7.20
2017-11-18T19:40:08.202Z,7.10
2017-11-18T19:42:34.431Z,7.10
2017-11-18T19:45:00.655Z,7.10
2017-11-18T19:47:26.907Z,7.10
2017-11-18T19:49:53.822Z,7.10
2017-11-18T19:52:20.047Z,7.00
2017-11-18T19:54:46.282Z,7.10
2017-11-18T19:57:12.508Z,7.10
2017-11-18T19:59:39.468Z,7.20
2017-11-18T20:02:05.675Z,7.20
2017-11-18T20:04:31.856Z,7.20
2017-11-18T20:06:58.050Z,7.20
2017-11-18T20:09:24.227Z,7.20
2017-11-18T20:11:50.512Z,7.20
2017-11-18T20:14:17.454Z,7.20
2017-11-18T20:16:44.374Z,7.20
2017-11-18T20:19:10.546Z,7.20
2017-11-18T20:21:37.471Z,7.20
2017-11-18T20:24:03.623Z,7.20
2017-11-18T20:26:30.532Z,7.10
2017-11-18T20:28:57.491Z,7.00
2017-11-18T20:31:23.676Z,7.00
2017-11-18T20:33:49.858Z,6.90
2017-11-18T20:36:16.834Z,6.90
2017-11-18T20:38:43.790Z,6.80
2017-11-18T20:41:10.717Z,6.80
2017-11-18T20:43:36.933Z,6.70
2017-11-18T20:46:03.138Z,6.70
2017-11-18T20:48:29.327Z,6.70
2017-11-18T20:50:56.465Z,6.60
2017-11-18T20:53:22.750Z,6.60
2017-11-18T20:55:49.655Z,6.70
2017-11-18T20:58:15.832Z,6.70
2017-11-18T21:00:42.758Z,6.70
2017-11-18T21:03:08.967Z,6.60
2017-11-18T21:05:35.148Z,6.70
2017-11-18T21:08:01.346Z,6.70
2017-11-18T21:10:27.547Z,6.70
2017-11-18T21:12:53.825Z,6.80
2017-11-18T21:15:20.777Z,6.80
2017-11-18T21:17:47.028Z,6.80
2017-11-18T21:20:14.902Z,6.80
2017-11-18T21:22:41.982Z,6.80
2017-11-18T21:25:09.033Z,6.90
2017-11-18T21:27:36.171Z,6.90
2017-11-18T21:30:02.558Z,6.90
2017-11-18T21:32:29.656Z,6.90
2017-11-18T21:34:56.052Z,6.90
2017-11-18T21:37:22.380Z,7.00
2017-11-18T21:39:50.446Z,7.00
2017-11-18T21:42:17.588Z,6.90
2017-11-18T21:44:43.937Z,6.90
2017-11-18T21:47:10.165Z,6.90
2017-11-18T21:49:36.413Z,6.80
2017-11-18T21:52:02.605Z,6.80
2017-11-18T21:54:29.539Z,6.80
2017-11-18T21:56:55.772Z,6.70
2017-11-18T21:59:22.717Z,6.80
2017-11-18T22:01:48.942Z,6.80
2017-11-18T22:04:15.996Z,6.80
2017-11-18T22:06:42.197Z,6.80
2017-11-18T22:09:08.379Z,6.70
2017-11-18T22:11:34.605Z,6.70
2017-11-18T22:14:01.642Z,6.70
2017-11-18T22:16:27.847Z,6.70
2017-11-18T22:18:54.068Z,6.70
2017-11-18T22:21:20.602Z,6.60
2017-11-18T22:23:46.798Z,6.60
2017-11-18T22:26:13.011Z,6.60
2017-11-18T22:28:39.255Z,6.60
2017-11-18T22:31:05.462Z,6.60
2017-11-18T22:33:31.738Z,6.60
2017-11-18T22:35:57.918Z,6.60
2017-11-18T22:38:24.095Z,6.60
2017-11-18T22:40:51.081Z,6.60
2017-11-18T22:43:18.093Z,6.60
2017-11-18T22:45:44.296Z,6.60
2017-11-18T22:48:11.282Z,6.60
2017-11-18T22:50:38.198Z,6.50
2017-11-18T22:53:04.416Z,6.50
2017-11-18T22:55:30.601Z,6.50
2017-11-18T22:57:56.769Z,6.50
2017-11-18T23:00:40.172Z,6.50
2017-11-18T23:03:06.361Z,6.50
2017-11-18T23:05:32.550Z,6.50
2017-11-18T23:07:59.485Z,6.50
2017-11-18T23:10:25.658Z,6.50
2017-11-18T23:12:51.857Z,6.50
2017-11-18T23:15:19.002Z,6.40
2017-11-18T23:17:45.175Z,6.40
2017-11-18T23:20:11.386Z,6.40
2017-11-18T23:22:37.566Z,6.50
2017-11-18T23:25:03.732Z,6.40
2017-11-18T23:27:29.879Z,6.50
2017-11-18T23:29:56.085Z,6.50
2017-11-18T23:32:22.266Z,6.50
2017-11-18T23:34:48.436Z,6.50
2017-11-18T23:37:14.659Z,6.50
2017-11-18T23:39:40.845Z,6.40
2017-11-18T23:42:07.028Z,6.40
2017-11-18T23:44:34.043Z,6.50
2017-11-18T23:47:00.217Z,6.40
2017-11-18T23:49:27.143Z,6.40
2017-11-18T23:51:54.107Z,6.30
2017-11-18T23:54:21.006Z,6.30
2017-11-18T23:56:47.220Z,6.30
2017-11-18T23:59:14.194Z,6.30
